Time;durP1;ratioP1;P1;durP2;ratioP2;P2;SDS_P1;SDS_P2;PMS_P1;PMS_P2;Temp;Humidity;BMP_temperature;BMP_pressure;BME280_temperature;BME280_humidity;BME280_pressure;Samples;Min_cycle;Max_cycle;Signal;HPM_P1;HPM_P2
2021/01/07 00:01:22;;;;;;;11.10;7.57;;;0.80;99.90;;;;;;6160575;23;20021;-81
2021/01/07 00:03:48;;;;;;;10.68;7.85;;;0.80;99.90;;;;;;6160969;23;20024;-80
2021/01/07 00:06:15;;;;;;;8.90;7.15;;;0.80;99.90;;;;;;6160430;23;20021;-80
2021/01/07 00:08:42;;;;;;;7.75;6.65;;;0.80;99.90;;;;;;6186949;23;20329;-80
2021/01/07 00:11:09;;;;;;;9.13;7.10;;;0.80;99.90;;;;;;6186316;23;20092;-80
2021/01/07 00:13:36;;;;;;;8.55;6.85;;;0.80;99.90;;;;;;6186831;23;20104;-81
2021/01/07 00:16:03;;;;;;;11.45;8.70;;;0.90;99.90;;;;;;6187054;23;20031;-80
2021/01/07 00:18:30;;;;;;;10.65;7.60;;;0.90;99.90;;;;;;6187275;23;20144;-80
2021/01/07 00:20:56;;;;;;;11.95;8.07;;;0.80;99.90;;;;;;6160831;23;20479;-80
2021/01/07 00:23:23;;;;;;;11.32;7.85;;;0.90;99.90;;;;;;6187031;23;20076;-80
2021/01/07 00:25:51;;;;;;;10.23;7.90;;;0.90;99.90;;;;;;6161170;23;20028;-80
2021/01/07 00:28:18;;;;;;;15.05;9.82;;;0.90;99.90;;;;;;6187080;23;20017;-80
2021/01/07 00:30:45;;;;;;;12.23;8.68;;;0.90;99.90;;;;;;6187081;23;20103;-80
2021/01/07 00:33:13;;;;;;;11.27;8.40;;;0.90;99.90;;;;;;6160913;23;20024;-80
2021/01/07 00:35:40;;;;;;;12.35;8.63;;;0.80;99.90;;;;;;6160456;23;20025;-80
2021/01/07 00:38:06;;;;;;;10.82;8.57;;;0.80;99.90;;;;;;6187106;23;20403;-80
2021/01/07 00:40:34;;;;;;;9.05;6.30;;;0.80;99.90;;;;;;6186583;23;20017;-80
2021/01/07 00:43:02;;;;;;;10.15;7.00;;;0.90;99.90;;;;;;6160625;23;20337;-80
2021/01/07 00:45:29;;;;;;;9.77;7.43;;;0.90;99.90;;;;;;6186932;23;20021;-80
2021/01/07 00:47:55;;;;;;;8.50;7.15;;;0.80;99.90;;;;;;6160532;23;20420;-80
2021/01/07 00:50:22;;;;;;;9.88;7.53;;;0.80;99.90;;;;;;6194839;23;20028;-81
2021/01/07 00:52:48;;;;;;;12.50;8.20;;;0.80;99.90;;;;;;6196224;23;20356;-81
2021/01/07 00:55:16;;;;;;;11.48;8.63;;;0.80;99.90;;;;;;6194245;23;20413;-81
2021/01/07 00:57:42;;;;;;;10.73;7.85;;;0.80;99.90;;;;;;6194198;23;20444;-81
2021/01/07 01:00:11;;;;;;;10.80;8.57;;;0.80;99.90;;;;;;6191837;23;20021;-80
2021/01/07 01:02:37;;;;;;;11.60;8.32;;;0.70;99.90;;;;;;6192619;23;20059;-80
2021/01/07 01:05:05;;;;;;;11.85;8.93;;;0.80;99.90;;;;;;6193777;23;20027;-80
2021/01/07 01:07:31;;;;;;;10.63;8.00;;;0.80;99.90;;;;;;6166357;23;20021;-80
2021/01/07 01:09:57;;;;;;;11.23;8.18;;;0.80;99.90;;;;;;6192504;23;20021;-80
2021/01/07 01:12:24;;;;;;;9.50;7.38;;;0.80;99.90;;;;;;6169369;23;20021;-80
2021/01/07 01:14:50;;;;;;;10.63;8.30;;;0.90;99.90;;;;;;6191178;23;20100;-80
2021/01/07 01:17:17;;;;;;;8.77;7.00;;;0.90;99.90;;;;;;6189680;23;20081;-81
2021/01/07 01:19:43;;;;;;;8.88;6.85;;;0.90;99.90;;;;;;6188697;23;20021;-80
2021/01/07 01:22:10;;;;;;;9.23;7.22;;;0.80;99.90;;;;;;6190572;23;20464;-80
2021/01/07 01:24:36;;;;;;;8.88;7.03;;;0.90;99.90;;;;;;6188322;23;20036;-80
2021/01/07 01:27:03;;;;;;;6.60;5.75;;;0.80;99.90;;;;;;6188259;23;20021;-80
2021/01/07 01:29:29;;;;;;;8.20;6.68;;;0.80;99.90;;;;;;6187918;23;20017;-80
2021/01/07 01:31:56;;;;;;;10.38;7.40;;;0.70;99.90;;;;;;6188662;23;20059;-80
2021/01/07 01:34:23;;;;;;;9.15;6.75;;;0.70;99.90;;;;;;6189625;23;20325;-80
2021/01/07 01:36:50;;;;;;;8.02;6.60;;;0.70;99.90;;;;;;6189025;23;20055;-80
2021/01/07 01:39:17;;;;;;;8.25;6.30;;;0.80;99.90;;;;;;6188913;23;20148;-81
2021/01/07 01:41:45;;;;;;;8.50;6.60;;;0.80;99.90;;;;;;6187971;23;20052;-80
2021/01/07 01:44:13;;;;;;;8.50;6.65;;;0.80;99.90;;;;;;6185318;23;20329;-80
2021/01/07 01:46:40;;;;;;;7.97;6.13;;;0.80;99.90;;;;;;6185574;23;20024;-80
2021/01/07 01:49:07;;;;;;;8.63;6.22;;;0.80;99.90;;;;;;6185084;23;20028;-80
2021/01/07 01:51:35;;;;;;;8.38;6.38;;;0.80;99.90;;;;;;6184195;23;20021;-80
2021/01/07 01:54:02;;;;;;;8.40;6.50;;;0.80;99.90;;;;;;6183949;23;20468;-80
2021/01/07 01:56:28;;;;;;;7.18;5.85;;;0.80;99.90;;;;;;6184419;23;20405;-80
2021/01/07 01:58:57;;;;;;;9.85;6.40;;;0.70;99.90;;;;;;6185966;23;20021;-80
2021/01/07 02:01:23;;;;;;;6.90;6.13;;;0.70;99.90;;;;;;6185877;23;20092;-80
2021/01/07 02:03:51;;;;;;;7.00;6.25;;;0.70;99.90;;;;;;6186353;23;20052;-80
2021/01/07 02:06:21;;;;;;;7.20;5.93;;;0.70;99.90;;;;;;6185585;23;20092;-80
2021/01/07 02:08:48;;;;;;;8.02;6.88;;;0.60;99.90;;;;;;6184208;23;20404;-80
2021/01/07 02:11:16;;;;;;;8.65;6.55;;;0.60;99.90;;;;;;6184301;23;20100;-80
2021/01/07 02:13:47;;;;;;;8.73;7.00;;;0.60;99.90;;;;;;6184460;23;20029;-80
2021/01/07 02:16:22;;;;;;;7.50;5.78;;;0.60;99.90;;;;;;6184781;23;20049;-80
2021/01/07 02:18:52;;;;;;;7.25;5.95;;;0.60;99.90;;;;;;6186279;23;20132;-80
2021/01/07 02:21:19;;;;;;;8.70;6.68;;;0.60;99.90;;;;;;6186136;23;20052;-80
2021/01/07 02:23:50;;;;;;;11.95;7.05;;;0.70;99.90;;;;;;6185443;23;20498;-80
2021/01/07 02:26:20;;;;;;;7.80;6.47;;;0.60;99.90;;;;;;6186095;23;20092;-80
2021/01/07 02:28:51;;;;;;;8.85;6.80;;;0.60;99.90;;;;;;6186022;23;20021;-80
2021/01/07 02:31:18;;;;;;;8.30;5.97;;;0.60;99.90;;;;;;6185758;23;20539;-80
2021/01/07 02:33:44;;;;;;;8.88;6.45;;;0.50;99.90;;;;;;6186218;23;20053;-80
2021/01/07 02:36:11;;;;;;;8.68;6.15;;;0.50;99.90;;;;;;6189150;23;20025;-81
2021/01/07 02:38:38;;;;;;;7.60;5.82;;;0.40;99.90;;;;;;6198104;23;20025;-81
2021/01/07 02:41:05;;;;;;;9.35;5.97;;;0.20;99.90;;;;;;6197088;23;20024;-81
2021/01/07 02:43:31;;;;;;;8.63;6.03;;;0.40;99.90;;;;;;6195040;23;20021;-81
2021/01/07 02:45:57;;;;;;;9.68;6.80;;;0.40;99.90;;;;;;6194845;23;20021;-81
2021/01/07 02:48:24;;;;;;;8.65;5.57;;;0.30;99.90;;;;;;6193814;23;20022;-80
2021/01/07 02:50:50;;;;;;;9.15;6.70;;;0.30;99.90;;;;;;6194050;23;20033;-81
2021/01/07 02:53:16;;;;;;;12.55;7.28;;;0.30;99.90;;;;;;6193693;23;20341;-80
2021/01/07 02:55:42;;;;;;;10.70;6.63;;;0.30;99.90;;;;;;6193384;23;20025;-81
2021/01/07 02:58:08;;;;;;;9.13;6.80;;;0.30;99.90;;;;;;6192948;23;20025;-81
2021/01/07 03:00:35;;;;;;;10.15;6.80;;;0.30;99.90;;;;;;6191858;23;20530;-80
2021/01/07 03:03:01;;;;;;;8.20;6.28;;;0.30;99.90;;;;;;6190790;23;20351;-80
2021/01/07 03:05:28;;;;;;;7.15;5.88;;;0.40;99.90;;;;;;6188230;23;20534;-80
2021/01/07 03:07:54;;;;;;;6.60;5.50;;;0.30;99.90;;;;;;6190971;23;20025;-80
2021/01/07 03:10:20;;;;;;;8.50;6.40;;;0.30;99.90;;;;;;6188161;23;20498;-80
2021/01/07 03:12:46;;;;;;;9.15;6.47;;;0.30;99.90;;;;;;6190042;23;20021;-81
2021/01/07 03:15:13;;;;;;;8.30;6.65;;;0.40;99.90;;;;;;6189269;23;20100;-80
2021/01/07 03:17:40;;;;;;;8.40;6.55;;;0.40;99.90;;;;;;6162365;23;20080;-80
2021/01/07 03:20:11;;;;;;;8.57;6.13;;;0.50;99.90;;;;;;6189006;23;20048;-80
2021/01/07 03:22:39;;;;;;;8.02;6.47;;;0.50;99.90;;;;;;6188713;23;20053;-80
2021/01/07 03:25:07;;;;;;;9.80;6.93;;;0.40;99.90;;;;;;6188300;23;20017;-80
2021/01/07 03:27:34;;;;;;;9.48;6.78;;;0.40;99.90;;;;;;6188649;23;20021;-80
2021/01/07 03:30:00;;;;;;;10.70;6.68;;;0.40;99.90;;;;;;6187835;23;20083;-80
2021/01/07 03:32:27;;;;;;;8.68;6.72;;;0.40;99.90;;;;;;6185252;23;20048;-80
2021/01/07 03:34:53;;;;;;;8.50;6.53;;;0.30;99.90;;;;;;6159250;23;20061;-80
2021/01/07 03:37:19;;;;;;;9.18;6.57;;;0.30;99.90;;;;;;6185393;23;20095;-80
2021/01/07 03:39:46;;;;;;;8.43;6.55;;;0.20;99.90;;;;;;6160734;23;20023;-80
2021/01/07 03:42:12;;;;;;;9.68;6.80;;;0.20;99.90;;;;;;6187067;23;20096;-80
2021/01/07 03:44:38;;;;;;;9.70;6.97;;;0.20;99.90;;;;;;6161210;23;20067;-80
2021/01/07 03:47:04;;;;;;;8.00;6.80;;;0.30;99.90;;;;;;6161118;23;20056;-80
2021/01/07 03:49:31;;;;;;;7.45;6.20;;;0.30;99.90;;;;;;6161439;23;20092;-80
2021/01/07 03:51:57;;;;;;;10.55;7.35;;;0.30;99.90;;;;;;6187322;23;20079;-80
2021/01/07 03:54:23;;;;;;;9.27;6.68;;;0.40;99.90;;;;;;6187384;23;20109;-80
2021/01/07 03:56:49;;;;;;;8.63;6.85;;;0.40;99.90;;;;;;6160742;23;20025;-80
2021/01/07 03:59:16;;;;;;;8.38;6.53;;;0.30;99.90;;;;;;6187329;23;20053;-80
2021/01/07 04:01:42;;;;;;;7.80;6.80;;;0.40;99.90;;;;;;6187146;23;20392;-80
2021/01/07 04:04:08;;;;;;;8.30;6.55;;;0.30;99.90;;;;;;6187563;23;20021;-80
2021/01/07 04:06:35;;;;;;;8.88;6.80;;;0.30;99.90;;;;;;6187466;23;20021;-81
2021/01/07 04:09:03;;;;;;;8.30;7.15;;;0.40;99.90;;;;;;6187339;23;20399;-80
2021/01/07 04:11:29;;;;;;;9.55;7.10;;;0.40;99.90;;;;;;6161001;23;20049;-80
2021/01/07 04:13:55;;;;;;;7.95;6.38;;;0.50;99.90;;;;;;6183927;23;20025;-80
2021/01/07 04:16:22;;;;;;;9.77;6.80;;;0.40;99.90;;;;;;6185935;23;20025;-80
2021/01/07 04:18:48;;;;;;;8.18;6.75;;;0.30;99.90;;;;;;6187927;23;20076;-80
2021/01/07 04:21:18;;;;;;;8.98;6.78;;;0.40;99.90;;;;;;6188015;23;20449;-80
2021/01/07 04:23:45;;;;;;;10.57;7.55;;;0.40;99.90;;;;;;6190902;23;20056;-81
2021/01/07 04:26:11;;;;;;;9.82;7.45;;;0.30;99.90;;;;;;6197742;23;20386;-82
2021/01/07 04:28:37;;;;;;;12.57;7.95;;;0.30;99.90;;;;;;6196644;23;20044;-81
2021/01/07 04:31:04;;;;;;;13.20;8.57;;;0.30;99.90;;;;;;6195611;23;20025;-81
2021/01/07 04:33:30;;;;;;;10.27;7.78;;;0.20;99.90;;;;;;6197220;23;20033;-81
2021/01/07 04:35:56;;;;;;;10.32;7.63;;;0.20;99.90;;;;;;6196507;23;20076;-81
2021/01/07 04:38:22;;;;;;;12.52;8.20;;;0.30;99.90;;;;;;6196539;23;20025;-81
2021/01/07 04:40:49;;;;;;;10.23;7.53;;;0.30;99.90;;;;;;6195683;23;20013;-81
2021/01/07 04:43:15;;;;;;;10.48;7.10;;;0.30;99.90;;;;;;6192814;23;20017;-81
2021/01/07 04:45:42;;;;;;;9.90;7.10;;;0.30;99.90;;;;;;6195210;23;20560;-81
2021/01/07 04:48:08;;;;;;;12.25;7.80;;;0.30;99.90;;;;;;6193951;23;20028;-81
2021/01/07 04:50:35;;;;;;;9.75;7.80;;;0.30;99.90;;;;;;6192199;23;20096;-81
2021/01/07 04:53:02;;;;;;;12.00;7.95;;;0.30;99.90;;;;;;6192913;23;20072;-81
2021/01/07 04:55:29;;;;;;;14.77;8.73;;;0.20;99.90;;;;;;6191085;23;20071;-81
2021/01/07 04:57:55;;;;;;;12.15;8.50;;;0.20;99.90;;;;;;6192234;23;20036;-81
2021/01/07 05:00:22;;;;;;;9.65;7.45;;;0.30;99.90;;;;;;6192098;23;20028;-81
2021/01/07 05:02:49;;;;;;;9.55;7.30;;;0.30;99.90;;;;;;6191905;23;20056;-81
2021/01/07 05:05:15;;;;;;;11.45;7.45;;;0.30;99.90;;;;;;6191152;23;20071;-81
2021/01/07 05:07:41;;;;;;;10.63;7.50;;;0.30;99.90;;;;;;6190716;23;20464;-81
2021/01/07 05:10:11;;;;;;;11.23;7.03;;;0.30;99.90;;;;;;6189714;23;20051;-81
2021/01/07 05:12:38;;;;;;;9.15;6.90;;;0.30;99.90;;;;;;6191362;23;20024;-81
2021/01/07 05:15:06;;;;;;;10.30;7.68;;;0.30;99.90;;;;;;6164817;23;20413;-81
2021/01/07 05:17:35;;;;;;;9.27;6.82;;;0.30;99.90;;;;;;6190628;23;20017;-81
2021/01/07 05:20:07;;;;;;;11.13;7.80;;;0.30;99.90;;;;;;6190843;23;20316;-82
2021/01/07 05:22:38;;;;;;;7.72;6.60;;;0.30;99.90;;;;;;6163559;23;20021;-81
2021/01/07 05:25:12;;;;;;;9.35;6.70;;;0.30;99.90;;;;;;6159722;23;20017;-81
2021/01/07 05:27:43;;;;;;;8.75;6.55;;;0.30;99.90;;;;;;6186701;23;20028;-81
2021/01/07 05:30:12;;;;;;;11.50;6.57;;;0.30;99.90;;;;;;6186600;23;20021;-81
2021/01/07 05:32:40;;;;;;;11.48;7.75;;;0.20;99.90;;;;;;6161515;23;20387;-81
2021/01/07 05:35:19;;;;;;;10.05;7.57;;;0.30;99.90;;;;;;6187074;23;20028;-81
2021/01/07 05:37:45;;;;;;;8.60;6.78;;;0.20;99.90;;;;;;6187688;23;20348;-81
2021/01/07 05:40:12;;;;;;;7.82;5.63;;;0.10;99.90;;;;;;6161360;23;20017;-81
2021/01/07 05:42:40;;;;;;;9.68;6.88;;;0.00;99.90;;;;;;6188121;23;20027;-81
2021/01/07 05:45:15;;;;;;;6.55;5.78;;;0.20;99.90;;;;;;6187869;23;20071;-81
2021/01/07 05:47:45;;;;;;;10.75;7.10;;;0.20;99.90;;;;;;6188580;23;20436;-81
2021/01/07 05:50:13;;;;;;;10.90;7.32;;;0.20;99.90;;;;;;6161583;23;20127;-81
2021/01/07 05:52:44;;;;;;;10.65;7.85;;;0.20;99.90;;;;;;6161611;23;20052;-81
2021/01/07 05:55:12;;;;;;;10.65;7.28;;;0.20;99.90;;;;;;6163090;23;20091;-81
2021/01/07 05:57:39;;;;;;;11.30;8.05;;;0.00;99.90;;;;;;6162439;23;20028;-81
2021/01/07 06:00:16;;;;;;;11.45;8.05;;;0.00;99.90;;;;;;6187346;23;20460;-81
2021/01/07 06:02:44;;;;;;;11.05;7.97;;;0.10;99.90;;;;;;6188318;23;20024;-81
2021/01/07 06:05:15;;;;;;;18.25;10.73;;;0.20;99.90;;;;;;6189304;23;20345;-81
2021/01/07 06:07:42;;;;;;;13.63;9.23;;;0.20;99.90;;;;;;6188804;23;20071;-81
2021/01/07 06:10:11;;;;;;;12.10;9.05;;;0.10;99.90;;;;;;6162701;23;20052;-81
2021/01/07 06:12:37;;;;;;;11.40;8.13;;;0.10;99.90;;;;;;6173608;23;20021;-82
2021/01/07 06:15:08;;;;;;;13.05;7.88;;;0.10;99.90;;;;;;6200583;23;20021;-82
2021/01/07 06:17:36;;;;;;;9.35;7.35;;;0.10;99.90;;;;;;6197699;23;20039;-82
2021/01/07 06:20:11;;;;;;;10.93;7.68;;;0.10;99.90;;;;;;6196645;23;20048;-82
2021/01/07 06:22:51;;;;;;;8.48;6.20;;;0.20;99.90;;;;;;6196387;23;20028;-82
2021/01/07 06:25:20;;;;;;;11.10;8.15;;;0.20;99.90;;;;;;6194214;23;20043;-82
2021/01/07 06:27:48;;;;;;;11.48;7.80;;;0.20;99.90;;;;;;6193551;23;20502;-82
2021/01/07 06:30:15;;;;;;;13.35;8.65;;;0.20;99.90;;;;;;6195259;23;20025;-81
2021/01/07 06:32:42;;;;;;;11.88;7.93;;;0.30;99.90;;;;;;6194336;23;20498;-81
2021/01/07 06:35:17;;;;;;;14.45;9.50;;;0.20;99.90;;;;;;6192271;23;20044;-81
2021/01/07 06:37:51;;;;;;;10.10;8.07;;;0.20;99.90;;;;;;6193484;23;20460;-82
2021/01/07 06:40:18;;;;;;;;;;;0.20;99.90;;;;;;6193693;23;20028;-81
2021/01/07 06:42:55;;;;;;;15.45;8.57;;;0.20;99.90;;;;;;6188154;23;19923;-81
2021/01/07 06:45:25;;;;;;;13.77;8.85;;;0.20;99.90;;;;;;6189041;23;20025;-81
2021/01/07 06:47:54;;;;;;;14.55;9.07;;;0.20;99.90;;;;;;6189171;23;20096;-81
2021/01/07 06:50:20;;;;;;;16.10;9.55;;;0.20;99.90;;;;;;6188105;23;20033;-81
2021/01/07 06:52:49;;;;;;;11.95;8.43;;;0.20;99.90;;;;;;6188355;23;20021;-81
2021/01/07 06:55:19;;;;;;;12.65;8.48;;;0.10;99.90;;;;;;6187685;23;20538;-81
2021/01/07 06:57:57;;;;;;;15.35;8.95;;;0.10;99.90;;;;;;6188285;23;20025;-81
2021/01/07 07:00:25;;;;;;;13.02;8.45;;;0.10;99.90;;;;;;6186645;23;20025;-81
2021/01/07 07:03:10;;;;;;;13.15;9.32;;;0.10;99.90;;;;;;6187905;23;20045;-81
2021/01/07 07:05:38;;;;;;;11.00;7.65;;;0.20;99.90;;;;;;6187841;23;20052;-81
2021/01/07 07:08:09;;;;;;;12.02;8.65;;;0.10;99.90;;;;;;6186525;23;20096;-82
2021/01/07 07:10:38;;;;;;;13.25;8.88;;;0.20;99.90;;;;;;6186216;23;20025;-81
2021/01/07 07:13:22;;;;;;;12.50;8.40;;;0.10;99.90;;;;;;6187085;23;20021;-81
2021/01/07 07:15:50;;;;;;;11.43;8.35;;;0.10;99.90;;;;;;6187299;23;20096;-81
2021/01/07 07:18:26;;;;;;;12.05;8.02;;;0.20;99.90;;;;;;6185947;23;20522;-81
2021/01/07 07:20:52;;;;;;;12.00;8.38;;;0.20;99.90;;;;;;6187628;23;20100;-81
2021/01/07 07:23:23;;;;;;;10.25;7.80;;;0.20;99.90;;;;;;6187673;23;20103;-81
2021/01/07 07:25:51;;;;;;;13.25;8.57;;;0.20;99.90;;;;;;6187656;23;20459;-81
2021/01/07 07:28:19;;;;;;;11.48;8.68;;;0.20;99.90;;;;;;6186305;23;20101;-81
2021/01/07 07:30:47;;;;;;;13.45;8.48;;;0.30;99.90;;;;;;6186664;23;20053;-81
2021/01/07 07:33:39;;;;;;;11.80;8.63;;;0.30;99.90;;;;;;6186728;23;20024;-81
2021/01/07 07:36:10;;;;;;;10.13;7.70;;;0.30;99.90;;;;;;6188223;23;20476;-81
2021/01/07 07:38:38;;;;;;;12.98;8.90;;;0.30;99.90;;;;;;6188043;23;20083;-81
2021/01/07 07:41:11;;;;;;;12.35;8.27;;;0.30;99.90;;;;;;6187171;23;20405;-81
2021/01/07 07:43:39;;;;;;;12.48;8.27;;;0.40;99.90;;;;;;6188566;23;20021;-81
2021/01/07 07:46:07;;;;;;;11.13;8.30;;;0.40;99.90;;;;;;6188428;23;20044;-81
2021/01/07 07:48:37;;;;;;;11.10;7.93;;;0.40;99.90;;;;;;6188736;23;20399;-81
2021/01/07 07:51:11;;;;;;;9.20;7.47;;;0.40;99.90;;;;;;6188786;23;20075;-81
2021/01/07 07:53:39;;;;;;;12.20;8.48;;;0.40;99.90;;;;;;6189066;23;20048;-82
2021/01/07 07:56:21;;;;;;;11.15;8.45;;;0.50;99.90;;;;;;6186769;23;20036;-81
2021/01/07 07:58:47;;;;;;;15.63;8.65;;;0.50;99.90;;;;;;6187841;23;20025;-82
2021/01/07 08:01:13;;;;;;;13.20;9.77;;;0.50;99.90;;;;;;6188245;23;20385;-81
2021/01/07 08:03:39;;;;;;;9.75;7.68;;;0.50;99.90;;;;;;6189063;23;20021;-81
2021/01/07 08:06:06;;;;;;;11.55;8.48;;;0.50;99.90;;;;;;6188054;23;20044;-81
2021/01/07 08:08:33;;;;;;;16.75;10.98;;;0.50;99.90;;;;;;6188233;23;20076;-81
2021/01/07 08:11:01;;;;;;;14.20;9.70;;;0.50;99.90;;;;;;6188263;23;20076;-81
2021/01/07 08:13:30;;;;;;;26.58;14.55;;;0.50;99.90;;;;;;6188753;23;20076;-81
2021/01/07 08:15:59;;;;;;;28.63;16.33;;;0.60;99.90;;;;;;6188658;23;20028;-81
2021/01/07 08:18:28;;;;;;;11.13;8.20;;;0.60;99.90;;;;;;6188525;23;20025;-81
2021/01/07 08:21:08;;;;;;;11.38;8.77;;;0.60;99.90;;;;;;6189099;23;20024;-81
2021/01/07 08:23:35;;;;;;;10.50;7.97;;;0.60;99.90;;;;;;6186667;23;20044;-81
2021/01/07 08:26:02;;;;;;;11.15;7.55;;;0.60;99.90;;;;;;6190008;23;20031;-81
2021/01/07 08:28:40;;;;;;;9.77;7.68;;;0.60;99.90;;;;;;6188943;23;20017;-81
2021/01/07 08:31:28;;;;;;;10.43;7.65;;;0.70;99.90;;;;;;6187256;23;20456;-81
2021/01/07 08:33:55;;;;;;;9.70;7.75;;;0.70;99.90;;;;;;6186516;23;20096;-81
2021/01/07 08:36:22;;;;;;;11.57;8.38;;;0.80;99.90;;;;;;6187093;23;20029;-81
2021/01/07 08:38:53;;;;;;;12.52;9.13;;;0.80;99.90;;;;;;6186962;23;20079;-81
2021/01/07 08:41:22;;;;;;;10.68;8.48;;;0.80;99.90;;;;;;6186371;23;20035;-81
2021/01/07 08:43:51;;;;;;;12.13;10.10;;;0.90;99.90;;;;;;6187239;23;20017;-81
2021/01/07 08:46:19;;;;;;;13.52;10.40;;;0.90;99.90;;;;;;6187931;23;20068;-81
2021/01/07 08:48:58;;;;;;;11.43;8.48;;;1.00;99.90;;;;;;6186483;23;20052;-81
2021/01/07 08:51:24;;;;;;;10.80;8.15;;;1.00;99.90;;;;;;6188457;23;20361;-81
2021/01/07 08:53:56;;;;;;;9.35;7.45;;;1.10;99.90;;;;;;6188849;23;20053;-81
2021/01/07 08:56:36;;;;;;;8.50;6.57;;;1.10;99.90;;;;;;6189166;23;20055;-81
2021/01/07 08:59:30;;;;;;;8.18;6.20;;;1.00;99.90;;;;;;6189131;23;20359;-81
2021/01/07 09:02:04;;;;;;;8.55;7.13;;;1.10;99.90;;;;;;6188600;23;20052;-81
2021/01/07 09:04:34;;;;;;;50.25;29.00;;;1.10;99.90;;;;;;6186574;23;20048;-81
2021/01/07 09:07:07;;;;;;;29.30;18.73;;;1.00;99.90;;;;;;6187966;23;20021;-81
2021/01/07 09:09:51;;;;;;;21.05;14.98;;;1.20;99.90;;;;;;6185360;23;20021;-81
2021/01/07 09:12:17;;;;;;;;;;;1.20;99.90;;;;;;6185140;23;20063;-81
2021/01/07 09:14:43;;;;;;;11.95;8.82;;;1.00;99.90;;;;;;6186568;23;19950;-81
2021/01/07 09:17:10;;;;;;;13.55;9.73;;;1.10;99.90;;;;;;6186702;23;20091;-81
2021/01/07 09:19:36;;;;;;;12.43;8.90;;;1.10;99.90;;;;;;6185220;23;20052;-81
2021/01/07 09:22:03;;;;;;;12.40;9.88;;;1.20;99.90;;;;;;6186365;23;20097;-81
2021/01/07 09:24:37;;;;;;;14.13;10.18;;;1.30;99.90;;;;;;6186932;23;20021;-81
2021/01/07 09:27:18;;;;;;;18.27;11.85;;;1.30;99.90;;;;;;6185308;23;20044;-81
2021/01/07 09:29:45;;;;;;;25.02;14.05;;;1.60;99.90;;;;;;6185371;23;20502;-82
2021/01/07 09:32:13;;;;;;;18.48;11.57;;;1.60;99.90;;;;;;6185462;23;20081;-81
2021/01/07 09:34:40;;;;;;;21.33;12.05;;;1.70;99.90;;;;;;6185127;23;20101;-81
2021/01/07 09:37:14;;;;;;;16.63;11.00;;;1.90;99.90;;;;;;6186685;23;20029;-81
2021/01/07 09:39:42;;;;;;;15.40;10.32;;;1.90;99.90;;;;;;6185750;23;20020;-81
2021/01/07 09:42:16;;;;;;;18.23;9.65;;;1.90;99.90;;;;;;6186104;23;20498;-80
2021/01/07 09:44:42;;;;;;;12.77;8.52;;;1.90;99.90;;;;;;6186470;23;20052;-81
2021/01/07 09:47:09;;;;;;;13.80;9.75;;;2.00;99.90;;;;;;6186128;23;20013;-81
2021/01/07 09:49:36;;;;;;;11.00;7.88;;;2.10;99.90;;;;;;6185973;23;20029;-81
2021/01/07 09:52:04;;;;;;;11.20;8.63;;;2.20;99.90;;;;;;6187977;23;20025;-81
2021/01/07 09:54:31;;;;;;;12.38;9.02;;;2.40;99.90;;;;;;6186675;23;20502;-81
2021/01/07 09:56:58;;;;;;;10.85;8.98;;;2.40;99.90;;;;;;6190220;23;20040;-82
2021/01/07 09:59:27;;;;;;;8.82;7.00;;;2.40;99.90;;;;;;6193033;23;20025;-81
2021/01/07 10:02:02;;;;;;;9.13;6.78;;;2.50;99.90;;;;;;6192417;23;20112;-82
2021/01/07 10:04:30;;;;;;;10.00;7.10;;;2.60;99.90;;;;;;6190943;23;20024;-81
2021/01/07 10:06:56;;;;;;;10.60;7.90;;;2.50;99.90;;;;;;6189378;23;20071;-81
2021/01/07 10:09:23;;;;;;;11.02;7.07;;;2.70;99.90;;;;;;6188353;23;20464;-81
2021/01/07 10:11:54;;;;;;;8.35;6.93;;;2.70;99.90;;;;;;6191284;23;20025;-81
2021/01/07 10:14:22;;;;;;;8.88;6.75;;;2.90;99.90;;;;;;6189677;23;20056;-81
2021/01/07 10:16:50;;;;;;;8.88;6.68;;;3.20;99.90;;;;;;6190773;23;20064;-81
2021/01/07 10:19:17;;;;;;;7.93;6.60;;;3.40;99.90;;;;;;6163015;23;20063;-81
2021/01/07 10:21:47;;;;;;;9.30;6.95;;;3.40;99.90;;;;;;6188927;23;20052;-81
2021/01/07 10:24:16;;;;;;;12.80;9.20;;;3.20;99.90;;;;;;6162688;23;20447;-81
2021/01/07 10:27:04;;;;;;;11.32;8.25;;;3.20;99.90;;;;;;6189047;23;20076;-81
2021/01/07 10:29:33;;;;;;;12.25;8.25;;;3.30;99.90;;;;;;6188309;23;20021;-81
2021/01/07 10:32:16;;;;;;;14.07;9.20;;;3.30;99.90;;;;;;6162093;23;20100;-80
2021/01/07 10:34:44;;;;;;;18.95;12.23;;;3.10;99.90;;;;;;6188495;23;20021;-80
2021/01/07 10:37:12;;;;;;;12.50;9.07;;;2.40;99.90;;;;;;6188348;23;20021;-81
2021/01/07 10:39:40;;;;;;;12.75;8.60;;;2.40;99.90;;;;;;6188574;23;20043;-80
2021/01/07 10:42:10;;;;;;;16.30;8.88;;;2.60;99.90;;;;;;6160556;23;20053;-81
2021/01/07 10:44:38;;;;;;;14.27;9.68;;;2.40;99.90;;;;;;6161090;23;20100;-80
2021/01/07 10:47:07;;;;;;;13.18;8.32;;;2.70;99.90;;;;;;6161847;23;20092;-80
2021/01/07 10:49:36;;;;;;;13.38;8.48;;;2.80;99.90;;;;;;6191095;23;20064;-81
2021/01/07 10:52:08;;;;;;;13.77;9.10;;;2.90;99.90;;;;;;6164289;23;20548;-80
2021/01/07 10:54:45;;;;;;;14.30;9.00;;;3.10;99.90;;;;;;6164732;23;20032;-80
2021/01/07 10:57:29;;;;;;;13.25;8.57;;;3.20;99.90;;;;;;6190400;23;20033;-80
2021/01/07 11:00:28;;;;;;;11.05;7.57;;;3.20;99.90;;;;;;6190337;23;20021;-80
2021/01/07 11:03:22;;;;;;;11.98;8.05;;;3.40;99.90;;;;;;6120306;23;20104;-80
2021/01/07 11:05:52;;;;;;;11.15;7.63;;;3.40;99.90;;;;;;6162677;23;20103;-80
2021/01/07 11:08:47;;;;;;;12.15;8.02;;;3.40;99.90;;;;;;6162621;23;20419;-80
2021/01/07 11:11:31;;;;;;;13.85;8.77;;;3.40;99.90;;;;;;6188832;23;20391;-80
2021/01/07 11:14:03;;;;;;;;;;;2.90;99.90;;;;;;6189234;23;20356;-80
2021/01/07 11:16:46;;;;;;;29.50;18.48;;;2.90;99.90;;;;;;6188390;23;19924;-80
2021/01/07 11:19:14;;;;;;;;;;;2.90;99.90;;;;;;6189354;23;20451;-80
2021/01/07 11:21:52;;;;;;;12.82;7.70;;;2.70;99.90;;;;;;6189089;23;19994;-80
2021/01/07 11:24:20;;;;;;;11.77;8.18;;;2.70;99.90;;;;;;6189260;23;20358;-80
2021/01/07 11:26:47;;;;;;;11.15;8.02;;;2.80;99.90;;;;;;6188946;23;20052;-79
2021/01/07 11:29:14;;;;;;;15.15;10.18;;;2.80;99.90;;;;;;6189433;23;20347;-79
2021/01/07 11:31:51;;;;;;;15.32;9.60;;;2.50;99.90;;;;;;6190006;23;20079;-80
2021/01/07 11:34:20;;;;;;;13.20;9.48;;;2.50;99.90;;;;;;6189404;23;20024;-80
2021/01/07 11:37:03;;;;;;;19.23;10.82;;;2.70;99.90;;;;;;6189869;23;20055;-80
2021/01/07 11:39:47;;;;;;;20.42;11.90;;;2.70;99.90;;;;;;6163846;23;20025;-80
2021/01/07 11:42:27;;;;;;;;;;;2.50;99.90;;;;;;6190237;23;20059;-80
2021/01/07 11:45:11;;;;;;;35.17;17.38;;;2.30;99.90;;;;;;6189797;23;19944;-79
2021/01/07 11:47:52;;;;;;;34.47;16.63;;;2.20;99.90;;;;;;6197374;23;20021;-81
2021/01/07 11:50:19;;;;;;;31.75;14.95;;;2.20;99.90;;;;;;6194821;23;20025;-80
2021/01/07 11:52:45;;;;;;;21.58;11.38;;;2.30;99.90;;;;;;6194572;23;20024;-81
2021/01/07 11:55:12;;;;;;;20.90;11.68;;;2.30;99.90;;;;;;6167605;23;20040;-81
2021/01/07 11:57:40;;;;;;;17.92;9.93;;;2.30;99.90;;;;;;6193064;23;20036;-81
2021/01/07 12:00:11;;;;;;;16.02;10.05;;;2.30;99.90;;;;;;6190173;23;20104;-81
2021/01/07 12:02:41;;;;;;;14.00;8.77;;;2.10;99.90;;;;;;6190958;23;20017;-81
2021/01/07 12:05:11;;;;;;;8.82;6.53;;;1.90;99.90;;;;;;6189966;23;20021;-80
2021/01/07 12:08:15;;;;;;;9.48;6.50;;;2.10;99.90;;;;;;6190479;23;20021;-81
2021/01/07 12:10:46;;;;;;;9.73;6.72;;;2.10;99.90;;;;;;6163776;23;20053;-80
2021/01/07 12:13:18;;;;;;;10.68;6.63;;;2.20;99.90;;;;;;6189967;23;20025;-81
2021/01/07 12:15:49;;;;;;;10.05;6.53;;;2.20;99.90;;;;;;6163278;23;20464;-80
2021/01/07 12:18:16;;;;;;;8.90;6.82;;;2.50;99.90;;;;;;6163467;23;20044;-80
2021/01/07 12:20:43;;;;;;;9.45;7.40;;;2.60;99.90;;;;;;6189811;23;20059;-80
2021/01/07 12:23:10;;;;;;;9.77;6.97;;;2.70;99.90;;;;;;6189924;23;20021;-80
2021/01/07 12:25:41;;;;;;;11.05;7.05;;;2.90;99.90;;;;;;6189916;23;20021;-80
2021/01/07 12:28:14;;;;;;;10.20;7.53;;;3.00;99.90;;;;;;6189677;23;20092;-80
2021/01/07 12:30:45;;;;;;;10.88;8.18;;;3.00;99.90;;;;;;6189264;23;20049;-80
2021/01/07 12:33:36;;;;;;;10.63;6.72;;;3.00;99.90;;;;;;6162272;23;20067;-80
2021/01/07 12:36:39;;;;;;;10.57;6.97;;;2.90;99.90;;;;;;6189017;23;20025;-79
2021/01/07 12:39:12;;;;;;;10.13;6.80;;;2.80;99.90;;;;;;6189029;23;20047;-80
2021/01/07 12:41:48;;;;;;;8.73;6.53;;;2.80;99.90;;;;;;6188362;23;20099;-80
2021/01/07 12:44:18;;;;;;;8.50;6.82;;;2.60;99.90;;;;;;6162142;23;20055;-79
2021/01/07 12:46:47;;;;;;;7.70;5.68;;;2.80;99.90;;;;;;6162242;23;20040;-80
2021/01/07 12:49:17;;;;;;;8.02;5.68;;;2.80;99.90;;;;;;6188171;23;20064;-80
2021/01/07 12:51:45;;;;;;;11.15;6.13;;;2.90;99.90;;;;;;6160712;23;20021;-79
2021/01/07 12:54:15;;;;;;;9.93;6.22;;;3.00;99.90;;;;;;6160121;23;20112;-79
2021/01/07 12:57:17;;;;;;;8.32;6.00;;;3.10;99.90;;;;;;6186592;23;20412;-80
2021/01/07 12:59:52;;;;;;;8.35;6.50;;;3.10;99.90;;;;;;6127718;23;20059;-80
2021/01/07 13:02:43;;;;;;;12.90;8.63;;;3.10;99.90;;;;;;6160287;23;20056;-80
2021/01/07 13:05:23;;;;;;;9.45;7.25;;;3.20;99.90;;;;;;6186331;23;20100;-80